Time;durP1;ratioP1;P1;durP2;ratioP2;P2;SDS_P1;SDS_P2;PMS_P1;PMS_P2;Temp;Humidity;BMP_temperature;BMP_pressure;BME280_temperature;BME280_humidity;BME280_pressure;Samples;Min_cycle;Max_cycle;Signal;HPM_P1;HPM_P2
2021/12/10 00:00:21;;;;;;;;;;;;;;;;;;5095833;28;45334;-75
2021/12/10 00:02:47;;;;;;;;;;;;;;;;;;5096803;28;49561;-75
2021/12/10 00:05:14;;;;;;;;;;;;;;;;;;5096101;28;46335;-75
2021/12/10 00:07:40;;;;;;;;;;;;;;;;;;5096432;28;43674;-75
2021/12/10 00:10:07;;;;;;;;;;;;;;;;;;5096397;28;46095;-75
2021/12/10 00:12:33;;;;;;;;;;;;;;;;;;5094691;28;45743;-75
2021/12/10 00:14:59;;;;;;;;;;;;;;;;;;5095853;28;45879;-75
2021/12/10 00:17:26;;;;;;;;;;;;;;;;;;5094808;28;43620;-75
2021/12/10 00:19:54;;;;;;;;;;;;;;;;;;5095404;28;43787;-75
2021/12/10 00:22:20;;;;;;;;;;;;;;;;;;5095036;28;45928;-75
2021/12/10 00:24:46;;;;;;;;;;;;;;;;;;5095434;28;46746;-75
2021/12/10 00:27:13;;;;;;;;;;;;;;;;;;5096005;28;45675;-75
2021/12/10 00:29:41;;;;;;;;;;;;;;;;;;5093775;28;43309;-74
2021/12/10 00:32:15;;;;;;;;;;;;;;;;;;5093511;28;48569;-75
2021/12/10 00:34:41;;;;;;;;;;;;;;;;;;5095013;28;46353;-74
2021/12/10 00:37:07;;;;;;;;;;;;;;;;;;5093434;28;44253;-74
2021/12/10 00:39:33;;;;;;;;;;;;;;;;;;5093656;28;43787;-74
2021/12/10 00:42:00;;;;;;;;;;;;;;;;;;5093286;28;47958;-74
2021/12/10 00:44:26;;;;;;;;;;;;;;;;;;5094722;28;47153;-74
2021/12/10 00:46:52;;;;;;;;;;;;;;;;;;5094060;28;44872;-74
2021/12/10 00:49:18;;;;;;;;;;;;;;;;;;5092611;28;44966;-74
2021/12/10 00:51:45;;;;;;;;;;;;;;;;;;5093999;28;48328;-74
2021/12/10 00:54:14;;;;;;;;;;;;;;;;;;5094578;28;45995;-74
2021/12/10 00:56:41;;;;;;;;;;;;;;;;;;5094215;28;41652;-74
2021/12/10 00:59:07;;;;;;;;;;;;;;;;;;5094754;28;44633;-74
2021/12/10 01:01:34;;;;;;;;;;;;;;;;;;5095061;28;46917;-74
2021/12/10 01:04:00;;;;;;;;;;;;;;;;;;5095381;28;46696;-75
2021/12/10 01:06:26;;;;;;;;;;;;;;;;;;5094884;28;43487;-74
2021/12/10 01:08:53;;;;;;;;;;;;;;;;;;5094746;28;46173;-75
2021/12/10 01:11:20;;;;;;;;;;;;;;;;;;5093859;28;45878;-74
2021/12/10 01:13:48;;;;;;;;;;;;;;;;;;5095133;28;44939;-74
2021/12/10 01:24:18;;;;;;;;;;;;;;;;;;5094853;28;46570;-75
2021/12/10 01:29:10;;;;;;;;;;;;;;;;;;5094435;28;47785;-75
2021/12/10 01:31:37;;;;;;;;;;;;;;;;;;5092100;28;48112;-74
2021/12/10 01:34:03;;;;;;;;;;;;;;;;;;5094260;28;47281;-74
2021/12/10 01:36:29;;;;;;;;;;;;;;;;;;5094122;28;44548;-75
2021/12/10 01:38:56;;;;;;;;;;;;;;;;;;5093940;28;46237;-75
2021/12/10 01:41:23;;;;;;;;;;;;;;;;;;5094061;28;48230;-74
2021/12/10 01:43:52;;;;;;;;;;;;;;;;;;5094125;28;47270;-75
2021/12/10 01:46:19;;;;;;;;;;;;;;;;;;5094107;28;41854;-75
2021/12/10 01:48:45;;;;;;;;;;;;;;;;;;5094232;28;46346;-75
2021/12/10 01:51:12;;;;;;;;;;;;;;;;;;5094310;28;48047;-74
2021/12/10 01:53:38;;;;;;;;;;;;;;;;;;5093492;28;47274;-74
2021/12/10 01:56:04;;;;;;;;;;;;;;;;;;5094062;28;44770;-74
2021/12/10 01:58:31;;;;;;;;;;;;;;;;;;5094861;28;44620;-75
2021/12/10 02:00:57;;;;;;;;;;;;;;;;;;5093865;28;45302;-74
2021/12/10 02:03:23;;;;;;;;;;;;;;;;;;5092935;28;46521;-74
2021/12/10 02:05:50;;;;;;;;;;;;;;;;;;5093764;28;44652;-74
2021/12/10 02:08:16;;;;;;;;;;;;;;;;;;5094096;28;46116;-74
2021/12/10 02:10:42;;;;;;;;;;;;;;;;;;5094445;28;45808;-74
2021/12/10 02:13:08;;;;;;;;;;;;;;;;;;5093902;28;47390;-74
2021/12/10 02:15:35;;;;;;;;;;;;;;;;;;5094518;28;44417;-74
2021/12/10 02:18:01;;;;;;;;;;;;;;;;;;5094096;28;45328;-74
2021/12/10 02:20:27;;;;;;;;;;;;;;;;;;5092702;28;47245;-74
2021/12/10 02:22:54;;;;;;;;;;;;;;;;;;5093574;28;47267;-74
2021/12/10 02:25:20;;;;;;;;;;;;;;;;;;5089669;28;43703;-74
2021/12/10 02:27:46;;;;;;;;;;;;;;;;;;5072243;28;44948;-75
2021/12/10 02:30:12;;;;;;;;;;;;;;;;;;5071732;28;48080;-74
2021/12/10 02:32:39;;;;;;;;;;;;;;;;;;5071748;28;46325;-74
2021/12/10 02:35:05;;;;;;;;;;;;;;;;;;5072602;28;44598;-74
2021/12/10 02:37:32;;;;;;;;;;;;;;;;;;5072177;28;43928;-74
2021/12/10 02:39:58;;;;;;;;;;;;;;;;;;5072018;28;48578;-74
2021/12/10 02:42:24;;;;;;;;;;;;;;;;;;5076804;28;47429;-75
2021/12/10 02:44:50;;;;;;;;;;;;;;;;;;5075808;28;43584;-74
2021/12/10 02:47:20;;;;;;;;;;;;;;;;;;5076040;28;44657;-74
2021/12/10 02:49:46;;;;;;;;;;;;;;;;;;5076122;28;46307;-75
2021/12/10 02:52:14;;;;;;;;;;;;;;;;;;5075732;28;47451;-74
2021/12/10 02:54:42;;;;;;;;;;;;;;;;;;5076342;28;44855;-74
2021/12/10 02:57:09;;;;;;;;;;;;;;;;;;5075327;28;46255;-75
2021/12/10 02:59:35;;;;;;;;;;;;;;;;;;5076283;28;47892;-74
2021/12/10 03:02:01;;;;;;;;;;;;;;;;;;5077056;28;46310;-74
2021/12/10 03:04:28;;;;;;;;;;;;;;;;;;5075838;28;43559;-74
2021/12/10 03:06:54;;;;;;;;;;;;;;;;;;5077174;28;44942;-75
2021/12/10 03:09:21;;;;;;;;;;;;;;;;;;5076429;28;47051;-74
2021/12/10 03:11:48;;;;;;;;;;;;;;;;;;5076275;28;46268;-74
2021/12/10 03:14:14;;;;;;;;;;;;;;;;;;5076555;28;44944;-74
2021/12/10 03:16:41;;;;;;;;;;;;;;;;;;5076019;28;45731;-75
2021/12/10 03:19:07;;;;;;;;;;;;;;;;;;5076145;28;47250;-75
2021/12/10 03:21:34;;;;;;;;;;;;;;;;;;5075957;28;47377;-75
2021/12/10 03:24:00;;;;;;;;;;;;;;;;;;5075742;28;43563;-74
2021/12/10 03:26:29;;;;;;;;;;;;;;;;;;5076080;28;43777;-75
2021/12/10 03:28:56;;;;;;;;;;;;;;;;;;5076800;28;46910;-74
2021/12/10 03:31:22;;;;;;;;;;;;;;;;;;5075356;28;46549;-75
2021/12/10 03:33:48;;;;;;;;;;;;;;;;;;5076120;28;44183;-74
2021/12/10 03:36:14;;;;;;;;;;;;;;;;;;5076457;28;45058;-74
2021/12/10 03:38:41;;;;;;;;;;;;;;;;;;5075388;28;47046;-75
2021/12/10 03:41:08;;;;;;;;;;;;;;;;;;5072895;28;46468;-74
2021/12/10 03:43:34;;;;;;;;;;;;;;;;;;5075696;28;42125;-74
2021/12/10 03:46:00;;;;;;;;;;;;;;;;;;5065720;28;45716;-74
2021/12/10 03:48:29;;;;;;;;;;;;;;;;;;5087660;28;46538;-74
2021/12/10 03:50:56;;;;;;;;;;;;;;;;;;5088710;28;46495;-75
2021/12/10 03:53:22;;;;;;;;;;;;;;;;;;5055471;28;42242;-74
2021/12/10 03:55:49;;;;;;;;;;;;;;;;;;5055432;28;44981;-74
2021/12/10 03:58:15;;;;;;;;;;;;;;;;;;5055291;28;48506;-74
2021/12/10 04:00:41;;;;;;;;;;;;;;;;;;5055560;28;44634;-75
2021/12/10 04:03:09;;;;;;;;;;;;;;;;;;5055973;28;41912;-75
2021/12/10 04:05:35;;;;;;;;;;;;;;;;;;5054959;28;43559;-74
2021/12/10 04:08:01;;;;;;;;;;;;;;;;;;5055063;28;47306;-75
2021/12/10 04:10:28;;;;;;;;;;;;;;;;;;5055286;28;46367;-74
2021/12/10 04:12:55;;;;;;;;;;;;;;;;;;5054170;28;42402;-73
2021/12/10 04:15:22;;;;;;;;;;;;;;;;;;5054957;28;43878;-73
2021/12/10 04:17:49;;;;;;;;;;;;;;;;;;5070527;28;47966;-74
2021/12/10 04:20:15;;;;;;;;;;;;;;;;;;5074992;28;47547;-74
2021/12/10 04:22:46;;;;;;;;;;;;;;;;;;5075598;28;43688;-74
2021/12/10 04:25:12;;;;;;;;;;;;;;;;;;5075315;28;46601;-74
2021/12/10 04:27:39;;;;;;;;;;;;;;;;;;5075319;28;48399;-73
2021/12/10 04:30:05;;;;;;;;;;;;;;;;;;5073233;28;47640;-74
2021/12/10 04:32:32;;;;;;;;;;;;;;;;;;5075220;28;44492;-74
2021/12/10 04:34:58;;;;;;;;;;;;;;;;;;5074807;28;43957;-74
2021/12/10 04:37:24;;;;;;;;;;;;;;;;;;5074870;28;48044;-74
2021/12/10 04:39:50;;;;;;;;;;;;;;;;;;5073947;28;48583;-74
2021/12/10 04:42:17;;;;;;;;;;;;;;;;;;5074934;28;44656;-74
2021/12/10 04:44:43;;;;;;;;;;;;;;;;;;5075126;28;45295;-73
2021/12/10 04:47:09;;;;;;;;;;;;;;;;;;5074449;28;49588;-74
2021/12/10 04:49:36;;;;;;;;;;;;;;;;;;5074844;28;44750;-74
2021/12/10 04:52:02;;;;;;;;;;;;;;;;;;5074674;28;41815;-74
2021/12/10 04:54:28;;;;;;;;;;;;;;;;;;5071998;28;46173;-74
2021/12/10 04:56:55;;;;;;;;;;;;;;;;;;5072627;28;46915;-74
2021/12/10 04:59:22;;;;;;;;;;;;;;;;;;5072615;28;46761;-73
2021/12/10 05:01:48;;;;;;;;;;;;;;;;;;5072536;28;43831;-73
2021/12/10 05:04:14;;;;;;;;;;;;;;;;;;5071544;28;44118;-74
2021/12/10 05:06:41;;;;;;;;;;;;;;;;;;5072845;28;48427;-73
2021/12/10 05:09:07;;;;;;;;;;;;;;;;;;5070845;28;45998;-74
2021/12/10 05:11:33;;;;;;;;;;;;;;;;;;5071700;28;45966;-73
2021/12/10 05:14:00;;;;;;;;;;;;;;;;;;5071033;28;46369;-74
2021/12/10 05:16:27;;;;;;;;;;;;;;;;;;5074065;28;47995;-74
2021/12/10 05:18:57;;;;;;;;;;;;;;;;;;5073498;28;47648;-74
2021/12/10 05:21:23;;;;;;;;;;;;;;;;;;5073924;28;44578;-74
2021/12/10 05:23:59;;;;;;;;;;;;;;;;;;5072424;28;44994;-75
2021/12/10 05:26:25;;;;;;;;;;;;;;;;;;5073442;28;47375;-75
2021/12/10 05:28:51;;;;;;;;;;;;;;;;;;5074974;28;46222;-75
2021/12/10 05:31:18;;;;;;;;;;;;;;;;;;5073912;28;42737;-74
2021/12/10 05:33:44;;;;;;;;;;;;;;;;;;5072972;28;46088;-74
2021/12/10 05:36:11;;;;;;;;;;;;;;;;;;5072292;28;45817;-74
2021/12/10 05:38:37;;;;;;;;;;;;;;;;;;5072582;28;47462;-74
2021/12/10 05:41:05;;;;;;;;;;;;;;;;;;5071479;28;43269;-73
2021/12/10 05:43:31;;;;;;;;;;;;;;;;;;5072307;28;45133;-72
2021/12/10 05:45:58;;;;;;;;;;;;;;;;;;5072589;28;47443;-73
2021/12/10 05:48:24;;;;;;;;;;;;;;;;;;5072200;28;45161;-74
2021/12/10 05:50:50;;;;;;;;;;;;;;;;;;5072346;28;44916;-73
2021/12/10 05:53:17;;;;;;;;;;;;;;;;;;5071199;28;44705;-73
2021/12/10 05:55:46;;;;;;;;;;;;;;;;;;5070920;28;47909;-73
2021/12/10 05:58:12;;;;;;;;;;;;;;;;;;5069166;28;47534;-73
2021/12/10 06:00:41;;;;;;;;;;;;;;;;;;5050598;28;43627;-73
2021/12/10 06:03:08;;;;;;;;;;;;;;;;;;5049519;28;44252;-73
2021/12/10 06:05:34;;;;;;;;;;;;;;;;;;5049285;28;48580;-73
2021/12/10 06:08:00;;;;;;;;;;;;;;;;;;5049448;28;46344;-73
2021/12/10 06:10:27;;;;;;;;;;;;;;;;;;5068929;28;45661;-73
2021/12/10 06:12:56;;;;;;;;;;;;;;;;;;5088860;28;43394;-73
2021/12/10 06:15:23;;;;;;;;;;;;;;;;;;5088855;28;45584;-74
2021/12/10 06:17:51;;;;;;;;;;;;;;;;;;5052849;28;44687;-74
2021/12/10 06:20:17;;;;;;;;;;;;;;;;;;5069436;28;45347;-74
2021/12/10 06:22:44;;;;;;;;;;;;;;;;;;5069467;28;45591;-74
2021/12/10 06:25:12;;;;;;;;;;;;;;;;;;5070282;28;46305;-74
2021/12/10 06:27:44;;;;;;;;;;;;;;;;;;5066120;28;46240;-74
2021/12/10 06:30:11;;;;;;;;;;;;;;;;;;5051603;28;44637;-74
2021/12/10 06:32:38;;;;;;;;;;;;;;;;;;5064780;28;43802;-74
2021/12/10 06:35:05;;;;;;;;;;;;;;;;;;5068733;28;46906;-74
2021/12/10 06:37:55;;;;;;;;;;;;;;;;;;5062269;28;19925;-74
2021/12/10 06:40:42;;;;;;;;;;;;;;;;;;5058183;28;20027;-74
2021/12/10 06:43:38;;;;;;;;;;;;;;;;;;5072421;28;20023;-74
2021/12/10 06:46:06;;;;;;;;;;;;;;;;;;5067267;28;47153;-74
2021/12/10 06:48:47;;;;;;;;;;;;;;;;;;5068089;28;45398;-74
2021/12/10 06:51:15;;;;;;;;;;;;;;;;;;5068856;28;43775;-74
2021/12/10 06:53:42;;;;;;;;;;;;;;;;;;5062005;28;44363;-75
2021/12/10 06:56:13;;;;;;;;;;;;;;;;;;5068745;28;46577;-75
2021/12/10 06:58:40;;;;;;;;;;;;;;;;;;5083342;28;47588;-74
2021/12/10 07:01:09;;;;;;;;;;;;;;;;;;5090596;28;45523;-74
2021/12/10 07:03:38;;;;;;;;;;;;;;;;;;5093853;28;45113;-75
2021/12/10 07:06:11;;;;;;;;;;;;;;;;;;5084100;28;45862;-74
2021/12/10 07:08:42;;;;;;;;;;;;;;;;;;5077020;28;46933;-75
2021/12/10 07:11:30;;;;;;;;;;;;;;;;;;5074120;28;42683;-74
2021/12/10 07:14:02;;;;;;;;;;;;;;;;;;5074735;28;42788;-75
2021/12/10 07:16:33;;;;;;;;;;;;;;;;;;5074923;28;46585;-74
2021/12/10 07:19:00;;;;;;;;;;;;;;;;;;5076002;28;45606;-74
2021/12/10 07:21:31;;;;;;;;;;;;;;;;;;5069662;28;42684;-75
2021/12/10 07:24:01;;;;;;;;;;;;;;;;;;5079744;28;43397;-74
2021/12/10 07:26:28;;;;;;;;;;;;;;;;;;5076767;28;47503;-73
2021/12/10 07:28:54;;;;;;;;;;;;;;;;;;5077479;28;46872;-73
2021/12/10 07:31:23;;;;;;;;;;;;;;;;;;5079178;28;42104;-73
2021/12/10 07:33:56;;;;;;;;;;;;;;;;;;5078912;28;47312;-73
2021/12/10 07:36:23;;;;;;;;;;;;;;;;;;5076789;28;45071;-73
2021/12/10 07:38:53;;;;;;;;;;;;;;;;;;5072721;28;44615;-73
2021/12/10 07:41:21;;;;;;;;;;;;;;;;;;5072600;28;43888;-73
2021/12/10 07:43:49;;;;;;;;;;;;;;;;;;5058120;28;45538;-73
2021/12/10 07:46:16;;;;;;;;;;;;;;;;;;5072905;28;48050;-73
2021/12/10 07:48:42;;;;;;;;;;;;;;;;;;5073428;28;45892;-73
2021/12/10 07:51:10;;;;;;;;;;;;;;;;;;5088841;28;46502;-73
2021/12/10 07:53:36;;;;;;;;;;;;;;;;;;5090790;28;44987;-72
2021/12/10 07:56:08;;;;;;;;;;;;;;;;;;5058432;28;49118;-73
2021/12/10 07:58:40;;;;;;;;;;;;;;;;;;5057766;28;47344;-74
2021/12/10 08:01:08;;;;;;;;;;;;;;;;;;5060442;28;42783;-74
2021/12/10 08:03:35;;;;;;;;;;;;;;;;;;5073251;28;43607;-74
2021/12/10 08:06:02;;;;;;;;;;;;;;;;;;5074924;28;48834;-74
2021/12/10 08:08:31;;;;;;;;;;;;;;;;;;5076276;28;45728;-73
2021/12/10 08:10:58;;;;;;;;;;;;;;;;;;5077619;28;41549;-73
2021/12/10 08:13:26;;;;;;;;;;;;;;;;;;5076313;28;45347;-73
2021/12/10 08:15:53;;;;;;;;;;;;;;;;;;5078038;28;46513;-73
2021/12/10 08:18:19;;;;;;;;;;;;;;;;;;5076518;28;48611;-73
2021/12/10 08:20:46;;;;;;;;;;;;;;;;;;5074115;28;43565;-73
2021/12/10 08:23:13;;;;;;;;;;;;;;;;;;5077018;28;44751;-73
2021/12/10 08:25:39;;;;;;;;;;;;;;;;;;5074349;28;47230;-72
2021/12/10 08:28:06;;;;;;;;;;;;;;;;;;5075909;28;45018;-73
2021/12/10 08:30:33;;;;;;;;;;;;;;;;;;5074575;28;41639;-73
2021/12/10 08:33:00;;;;;;;;;;;;;;;;;;5074582;28;43204;-73
2021/12/10 08:35:29;;;;;;;;;;;;;;;;;;5058288;28;47379;-72
2021/12/10 08:37:55;;;;;;;;;;;;;;;;;;5055420;28;46902;-73
2021/12/10 08:40:23;;;;;;;;;;;;;;;;;;5055697;28;44017;-72
2021/12/10 08:42:49;;;;;;;;;;;;;;;;;;5056500;28;46462;-73
2021/12/10 08:45:16;;;;;;;;;;;;;;;;;;5056071;28;46060;-74
2021/12/10 08:47:42;;;;;;;;;;;;;;;;;;5053763;28;46625;-73
2021/12/10 08:50:09;;;;;;;;;;;;;;;;;;5087099;28;42498;-73
2021/12/10 08:52:35;;;;;;;;;;;;;;;;;;5054458;28;43505;-74
2021/12/10 08:55:04;;;;;;;;;;;;;;;;;;5055036;28;46635;-74
2021/12/10 08:57:30;;;;;;;;;;;;;;;;;;5060467;28;46303;-74
2021/12/10 09:00:03;;;;;;;;;;;;;;;;;;5056958;28;44931;-74
2021/12/10 09:02:34;;;;;;;;;;;;;;;;;;5057449;28;45449;-74
2021/12/10 09:05:01;;;;;;;;;;;;;;;;;;5057059;28;47015;-75
2021/12/10 09:07:27;;;;;;;;;;;;;;;;;;5056593;28;44496;-74
2021/12/10 09:09:54;;;;;;;;;;;;;;;;;;5055587;28;43551;-74
2021/12/10 09:12:21;;;;;;;;;;;;;;;;;;5055339;28;44690;-74
2021/12/10 09:14:53;;;;;;;;;;;;;;;;;;5069521;28;45935;-73
2021/12/10 09:17:21;;;;;;;;;;;;;;;;;;5055401;28;46368;-74
2021/12/10 09:19:52;;;;;;;;;;;;;;;;;;5055269;28;44399;-73
2021/12/10 09:22:18;;;;;;;;;;;;;;;;;;5055343;28;45487;-75
2021/12/10 09:24:45;;;;;;;;;;;;;;;;;;5054775;28;46111;-73
2021/12/10 09:27:13;;;;;;;;;;;;;;;;;;5054316;28;47026;-72
2021/12/10 09:29:39;;;;;;;;;;;;;;;;;;5054686;28;44552;-73
2021/12/10 09:32:07;;;;;;;;;;;;;;;;;;5054760;28;45292;-73
2021/12/10 09:34:33;;;;;;;;;;;;;;;;;;5054371;28;47735;-72
2021/12/10 09:37:00;;;;;;;;;;;;;;;;;;5054781;28;45602;-73
2021/12/10 09:39:26;;;;;;;;;;;;;;;;;;5071096;28;43698;-73
2021/12/10 09:41:54;;;;;;;;;;;;;;;;;;5057417;28;42860;-73
2021/12/10 09:44:23;;;;;;;;;;;;;;;;;;5075438;28;48974;-73
2021/12/10 09:46:50;;;;;;;;;;;;;;;;;;5070186;28;45397;-73
2021/12/10 09:49:17;;;;;;;;;;;;;;;;;;5061018;28;44687;-74
2021/12/10 09:51:43;;;;;;;;;;;;;;;;;;5077266;28;46875;-73
2021/12/10 09:54:12;;;;;;;;;;;;;;;;;;5070565;28;48304;-73
2021/12/10 09:56:39;;;;;;;;;;;;;;;;;;5071988;28;45382;-74
2021/12/10 09:59:30;;;;;;;;;;;;;;;;;;5075517;28;44943;-74
2021/12/10 10:02:00;;;;;;;;;;;;;;;;;;5069432;28;43761;-74
2021/12/10 10:04:34;;;;;;;;;;;;;;;;;;5077356;28;48142;-73
2021/12/10 10:07:15;;;;;;;;;;;;;;;;;;5051840;28;19921;-74
2021/12/10 10:10:03;;;;;;;;;;;;;;;;;;5054364;28;19987;-71
2021/12/10 10:12:31;;;;;;;;;;;;;;;;;;5087929;28;44017;-72
2021/12/10 10:14:58;;;;;;;;;;;;;;;;;;5073775;28;46935;-73
2021/12/10 10:17:43;;;;;;;;;;;;;;;;;;5073000;28;47760;-73
2021/12/10 10:20:10;;;;;;;;;;;;;;;;;;5065050;28;46382;-73
2021/12/10 10:22:37;;;;;;;;;;;;;;;;;;5074449;28;42726;-73
2021/12/10 10:25:07;;;;;;;;;;;;;;;;;;5060118;28;47782;-73
2021/12/10 10:27:34;;;;;;;;;;;;;;;;;;5052393;28;44775;-73
2021/12/10 10:30:02;;;;;;;;;;;;;;;;;;5053777;28;43956;-73
2021/12/10 10:32:30;;;;;;;;;;;;;;;;;;5084988;28;45442;-74
2021/12/10 10:35:01;;;;;;;;;;;;;;;;;;5066131;28;46020;-74
2021/12/10 10:37:51;;;;;;;;;;;;;;;;;;5073989;28;19979;-73
2021/12/10 10:40:34;;;;;;;;;;;;;;;;;;5059473;28;19929;-74
2021/12/10 10:43:01;;;;;;;;;;;;;;;;;;5054891;28;45309;-74
2021/12/10 10:45:27;;;;;;;;;;;;;;;;;;5055901;28;46633;-73
2021/12/10 10:47:54;;;;;;;;;;;;;;;;;;5086424;28;45202;-74
2021/12/10 10:50:35;;;;;;;;;;;;;;;;;;5058948;28;43461;-74
2021/12/10 10:53:03;;;;;;;;;;;;;;;;;;5072722;28;44980;-73
2021/12/10 10:55:30;;;;;;;;;;;;;;;;;;5074657;28;45867;-74
2021/12/10 10:58:13;;;;;;;;;;;;;;;;;;5072472;28;44041;-73
2021/12/10 11:01:07;;;;;;;;;;;;;;;;;;5065868;28;19920;-73
2021/12/10 11:03:54;;;;;;;;;;;;;;;;;;5070394;28;20258;-74
2021/12/10 11:06:21;;;;;;;;;;;;;;;;;;5072988;28;48200;-73
2021/12/10 11:08:47;;;;;;;;;;;;;;;;;;5074189;28;47364;-74
2021/12/10 11:11:15;;;;;;;;;;;;;;;;;;5067679;28;46080;-74
2021/12/10 11:13:41;;;;;;;;;;;;;;;;;;5054414;28;45839;-75
2021/12/10 11:16:08;;;;;;;;;;;;;;;;;;5086088;28;47317;-74
2021/12/10 11:18:34;;;;;;;;;;;;;;;;;;5053619;28;47320;-74
2021/12/10 11:21:00;;;;;;;;;;;;;;;;;;5059310;28;44072;-74
2021/12/10 11:23:28;;;;;;;;;;;;;;;;;;5069066;28;46228;-74
2021/12/10 11:25:57;;;;;;;;;;;;;;;;;;5086064;28;49511;-74
2021/12/10 11:28:25;;;;;;;;;;;;;;;;;;5054740;28;46667;-74
2021/12/10 11:30:52;;;;;;;;;;;;;;;;;;5083461;28;43232;-73
2021/12/10 11:33:20;;;;;;;;;;;;;;;;;;5069105;28;42243;-74
2021/12/10 11:36:05;;;;;;;;;;;;;;;;;;5038430;28;46154;-75
2021/12/10 11:38:55;;;;;;;;;;;;;;;;;;5073057;28;19928;-74
2021/12/10 11:41:23;;;;;;;;;;;;;;;;;;5073328;28;44375;-74
2021/12/10 11:44:06;;;;;;;;;;;;;;;;;;5074727;28;45278;-74
2021/12/10 11:49:05;;;;;;;;;;;;;;;;;;5073497;28;45384;-74
2021/12/10 11:51:33;;;;;;;;;;;;;;;;;;5074325;28;42493;-74
2021/12/10 11:53:59;;;;;;;;;;;;;;;;;;5074870;28;46126;-74
2021/12/10 11:56:26;;;;;;;;;;;;;;;;;;5074975;28;47533;-73
2021/12/10 11:58:52;;;;;;;;;;;;;;;;;;5073202;28;46333;-73
2021/12/10 12:01:19;;;;;;;;;;;;;;;;;;5065588;28;45637;-74
2021/12/10 12:03:45;;;;;;;;;;;;;;;;;;5070098;28;46263;-74
2021/12/10 12:06:12;;;;;;;;;;;;;;;;;;5053731;28;47165;-74
2021/12/10 12:08:38;;;;;;;;;;;;;;;;;;5070705;28;47578;-74
2021/12/10 12:11:09;;;;;;;;;;;;;;;;;;5063922;28;44971;-74
2021/12/10 12:13:57;;;;;;;;;;;;;;;;;;5068593;28;45087;-73
2021/12/10 12:16:26;;;;;;;;;;;;;;;;;;5078176;28;46708;-73
2021/12/10 12:18:53;;;;;;;;;;;;;;;;;;5078264;28;47498;-72
2021/12/10 12:26:40;;;;;;;;;;;;;;;;;;5075373;28;46639;-73
2021/12/10 12:29:27;;;;;;;;;;;;;;;;;;5076832;28;20023;-73
2021/12/10 12:31:54;;;;;;;;;;;;;;;;;;5076834;28;45511;-73
2021/12/10 12:34:24;;;;;;;;;;;;;;;;;;5075679;28;46082;-73
2021/12/10 12:36:57;;;;;;;;;;;;;;;;;;5077253;28;46534;-74
2021/12/10 12:39:29;;;;;;;;;;;;;;;;;;5055974;28;44031;-75
2021/12/10 12:41:55;;;;;;;;;;;;;;;;;;5055822;28;43661;-74
2021/12/10 12:44:23;;;;;;;;;;;;;;;;;;5053907;28;45012;-74
2021/12/10 12:46:56;;;;;;;;;;;;;;;;;;5054544;28;48662;-72
2021/12/10 12:49:30;;;;;;;;;;;;;;;;;;5054823;28;49219;-72
2021/12/10 12:51:57;;;;;;;;;;;;;;;;;;5054994;28;43009;-72
2021/12/10 12:54:23;;;;;;;;;;;;;;;;;;5056511;28;45002;-73
2021/12/10 12:56:49;;;;;;;;;;;;;;;;;;5055738;28;48447;-72
2021/12/10 12:59:36;;;;;;;;;;;;;;;;;;5055529;28;19924;-73
2021/12/10 13:02:04;;;;;;;;;;;;;;;;;;5055549;28;41848;-72
2021/12/10 13:04:38;;;;;;;;;;;;;;;;;;5056624;28;42534;-72
2021/12/10 13:07:30;;;;;;;;;;;;;;;;;;5057123;28;19929;-72
2021/12/10 13:10:00;;;;;;;;;;;;;;;;;;5055470;28;46435;-72
2021/12/10 13:12:44;;;;;;;;;;;;;;;;;;5053909;28;44992;-72
2021/12/10 13:15:10;;;;;;;;;;;;;;;;;;5054895;28;46553;-72
2021/12/10 13:17:37;;;;;;;;;;;;;;;;;;5055378;28;47093;-72
2021/12/10 13:20:09;;;;;;;;;;;;;;;;;;5055431;28;46998;-75
2021/12/10 13:22:35;;;;;;;;;;;;;;;;;;5055339;28;43973;-73
2021/12/10 13:25:03;;;;;;;;;;;;;;;;;;5054536;28;44949;-72
2021/12/10 13:27:29;;;;;;;;;;;;;;;;;;5054458;28;47965;-72
2021/12/10 13:30:07;;;;;;;;;;;;;;;;;;5055641;28;46942;-73
2021/12/10 13:32:35;;;;;;;;;;;;;;;;;;5054373;28;44330;-72
2021/12/10 13:35:02;;;;;;;;;;;;;;;;;;5074530;28;46303;-72
2021/12/10 13:37:31;;;;;;;;;;;;;;;;;;5076250;28;45098;-72
2021/12/10 13:40:00;;;;;;;;;;;;;;;;;;5080631;28;48280;-72
2021/12/10 13:42:29;;;;;;;;;;;;;;;;;;5082996;28;43626;-73
2021/12/10 13:44:56;;;;;;;;;;;;;;;;;;5075127;28;44347;-72
2021/12/10 13:47:23;;;;;;;;;;;;;;;;;;5083138;28;49396;-73
2021/12/10 13:49:51;;;;;;;;;;;;;;;;;;5079620;28;45036;-73
2021/12/10 13:52:17;;;;;;;;;;;;;;;;;;5075756;28;43661;-73
2021/12/10 13:54:43;;;;;;;;;;;;;;;;;;5073959;28;46249;-73
2021/12/10 13:57:10;;;;;;;;;;;;;;;;;;5075651;28;47317;-73
2021/12/10 13:59:36;;;;;;;;;;;;;;;;;;5075984;28;46316;-73
2021/12/10 14:02:07;;;;;;;;;;;;;;;;;;5076030;28;19978;-73
2021/12/10 14:04:33;;;;;;;;;;;;;;;;;;5072553;28;46184;-74
2021/12/10 14:07:00;;;;;;;;;;;;;;;;;;5072409;28;48632;-74
2021/12/10 14:09:41;;;;;;;;;;;;;;;;;;5070466;28;47767;-75
2021/12/10 14:12:10;;;;;;;;;;;;;;;;;;5071993;28;43678;-74
2021/12/10 14:14:37;;;;;;;;;;;;;;;;;;5072587;28;45131;-74
2021/12/10 14:17:04;;;;;;;;;;;;;;;;;;5070292;28;48118;-74
2021/12/10 14:19:51;;;;;;;;;;;;;;;;;;5072086;28;19928;-74
2021/12/10 14:22:38;;;;;;;;;;;;;;;;;;5051942;28;19920;-74
2021/12/10 14:25:24;;;;;;;;;;;;;;;;;;5050670;28;19968;-74
2021/12/10 14:28:10;;;;;;;;;;;;;;;;;;5049705;28;20036;-74
2021/12/10 14:30:57;;;;;;;;;;;;;;;;;;5050978;28;19925;-74
2021/12/10 14:33:23;;;;;;;;;;;;;;;;;;5049852;28;42345;-74
2021/12/10 14:35:49;;;;;;;;;;;;;;;;;;5049574;28;44613;-74
2021/12/10 14:38:20;;;;;;;;;;;;;;;;;;5048756;28;47392;-75
2021/12/10 14:41:00;;;;;;;;;;;;;;;;;;5050733;28;47850;-74
2021/12/10 14:43:26;;;;;;;;;;;;;;;;;;5050906;28;42438;-75
2021/12/10 14:45:54;;;;;;;;;;;;;;;;;;5049784;28;46088;-74
2021/12/10 14:48:20;;;;;;;;;;;;;;;;;;5051182;28;46349;-74
2021/12/10 14:51:07;;;;;;;;;;;;;;;;;;5052465;28;19960;-74
2021/12/10 14:53:54;;;;;;;;;;;;;;;;;;5055854;28;19932;-74
2021/12/10 14:56:40;;;;;;;;;;;;;;;;;;5052142;28;19976;-73
2021/12/10 14:59:31;;;;;;;;;;;;;;;;;;5051442;28;19929;-73
2021/12/10 15:02:17;;;;;;;;;;;;;;;;;;5051168;28;19920;-73
2021/12/10 15:05:03;;;;;;;;;;;;;;;;;;5064885;28;19978;-73
2021/12/10 15:07:49;;;;;;;;;;;;;;;;;;5071635;28;19936;-74
2021/12/10 15:10:40;;;;;;;;;;;;;;;;;;5071799;28;20628;-74
2021/12/10 15:13:26;;;;;;;;;;;;;;;;;;5071689;28;20019;-74
2021/12/10 15:16:12;;;;;;;;;;;;;;;;;;5070644;28;19924;-74
2021/12/10 15:18:39;;;;;;;;;;;;;;;;;;5070007;28;46038;-74
2021/12/10 15:21:09;;;;;;;;;;;;;;;;;;5070023;28;46904;-74
2021/12/10 15:23:58;;;;;;;;;;;;;;;;;;5068086;28;19924;-73
2021/12/10 15:26:45;;;;;;;;;;;;;;;;;;5069283;28;46249;-74
2021/12/10 15:29:11;;;;;;;;;;;;;;;;;;5068792;28;43262;-73
2021/12/10 15:31:41;;;;;;;;;;;;;;;;;;5072635;28;49202;-73
2021/12/10 15:34:12;;;;;;;;;;;;;;;;;;5067790;28;45325;-74
2021/12/10 15:36:59;;;;;;;;;;;;;;;;;;5071417;28;43551;-74
2021/12/10 15:39:51;;;;;;;;;;;;;;;;;;5068867;28;19936;-74
2021/12/10 15:42:27;;;;;;;;;;;;;;;;;;5051344;28;48503;-72
2021/12/10 15:44:53;;;;;;;;;;;;;;;;;;5049486;28;46367;-73
2021/12/10 15:47:21;;;;;;;;;;;;;;;;;;5049886;28;41174;-74
2021/12/10 15:49:48;;;;;;;;;;;;;;;;;;5052481;28;44214;-74
2021/12/10 15:52:14;;;;;;;;;;;;;;;;;;5053154;28;45812;-75
2021/12/10 15:54:51;;;;;;;;;;;;;;;;;;5056308;28;45323;-75
2021/12/10 15:57:19;;;;;;;;;;;;;;;;;;5057752;28;40886;-75
2021/12/10 15:59:46;;;;;;;;;;;;;;;;;;5054631;28;43253;-75
2021/12/10 16:02:12;;;;;;;;;;;;;;;;;;5054681;28;47231;-74
2021/12/10 16:04:39;;;;;;;;;;;;;;;;;;5053604;28;46682;-74
2021/12/10 16:07:05;;;;;;;;;;;;;;;;;;5054023;28;45008;-75
2021/12/10 16:09:32;;;;;;;;;;;;;;;;;;5053414;28;46263;-75
2021/12/10 16:11:58;;;;;;;;;;;;;;;;;;5060548;28;46032;-75
2021/12/10 16:14:25;;;;;;;;;;;;;;;;;;5072147;28;44953;-75
2021/12/10 16:16:53;;;;;;;;;;;;;;;;;;5072043;28;43345;-74
2021/12/10 16:19:23;;;;;;;;;;;;;;;;;;5073231;28;45401;-74
2021/12/10 16:21:53;;;;;;;;;;;;;;;;;;5073327;28;47228;-75
2021/12/10 16:24:19;;;;;;;;;;;;;;;;;;5072495;28;47409;-75
2021/12/10 16:26:46;;;;;;;;;;;;;;;;;;5073477;28;42394;-75
2021/12/10 16:29:12;;;;;;;;;;;;;;;;;;5069462;28;45086;-75
2021/12/10 16:31:40;;;;;;;;;;;;;;;;;;5070385;28;45688;-74
2021/12/10 16:34:11;;;;;;;;;;;;;;;;;;5072494;28;45555;-75
2021/12/10 16:36:37;;;;;;;;;;;;;;;;;;5070314;28;42340;-74
2021/12/10 16:39:05;;;;;;;;;;;;;;;;;;5073922;28;44272;-75
2021/12/10 16:41:32;;;;;;;;;;;;;;;;;;5072517;28;44714;-74
2021/12/10 16:44:00;;;;;;;;;;;;;;;;;;5072962;28;46258;-74
2021/12/10 16:46:28;;;;;;;;;;;;;;;;;;5072687;28;44736;-75
2021/12/10 16:48:56;;;;;;;;;;;;;;;;;;5071939;28;44239;-75
2021/12/10 16:51:23;;;;;;;;;;;;;;;;;;5071913;28;45923;-75
2021/12/10 16:53:55;;;;;;;;;;;;;;;;;;5073143;28;45154;-75
2021/12/10 16:56:21;;;;;;;;;;;;;;;;;;5072167;28;45034;-75
2021/12/10 16:58:49;;;;;;;;;;;;;;;;;;5065707;28;42329;-76
2021/12/10 17:01:20;;;;;;;;;;;;;;;;;;5066084;28;47366;-76
2021/12/10 17:03:48;;;;;;;;;;;;;;;;;;5068647;28;45880;-76
2021/12/10 17:06:18;;;;;;;;;;;;;;;;;;5079438;28;46663;-76
2021/12/10 17:08:54;;;;;;;;;;;;;;;;;;5074135;28;43376;-75
2021/12/10 17:11:22;;;;;;;;;;;;;;;;;;5068243;28;48305;-75
2021/12/10 17:13:50;;;;;;;;;;;;;;;;;;5067668;28;47403;-75
2021/12/10 17:16:18;;;;;;;;;;;;;;;;;;5055030;28;44527;-74
2021/12/10 17:18:47;;;;;;;;;;;;;;;;;;5077412;28;45240;-75